sensor_id;sensor_type;location;lat;lon;timestamp;P1;durP1;ratioP1;P2;durP2;ratioP2
45650;SDS011;31365;48.858;8.530;2022-12-15T00:00:15;15.53;;;12.93;;
45650;SDS011;31365;48.858;8.530;2022-12-15T00:03:05;17.43;;;12.87;;
45650;SDS011;31365;48.858;8.530;2022-12-15T00:05:52;18.33;;;14.50;;
45650;SDS011;31365;48.858;8.530;2022-12-15T00:08:39;15.97;;;13.17;;
45650;SDS011;31365;48.858;8.530;2022-12-15T00:11:25;15.80;;;13.30;;
45650;SDS011;31365;48.858;8.530;2022-12-15T00:14:13;14.67;;;13.17;;
45650;SDS011;31365;48.858;8.530;2022-12-15T00:16:59;17.20;;;13.80;;
45650;SDS011;31365;48.858;8.530;2022-12-15T00:19:45;16.20;;;13.57;;
45650;SDS011;31365;48.858;8.530;2022-12-15T00:22:31;13.83;;;11.67;;
45650;SDS011;31365;48.858;8.530;2022-12-15T00:25:17;13.80;;;12.30;;
45650;SDS011;31365;48.858;8.530;2022-12-15T00:28:03;15.40;;;13.80;;
45650;SDS011;31365;48.858;8.530;2022-12-15T00:30:51;17.10;;;13.33;;
45650;SDS011;31365;48.858;8.530;2022-12-15T00:33:37;14.73;;;13.13;;
45650;SDS011;31365;48.858;8.530;2022-12-15T00:36:22;16.83;;;13.50;;
45650;SDS011;31365;48.858;8.530;2022-12-15T00:39:09;17.37;;;13.60;;
45650;SDS011;31365;48.858;8.530;2022-12-15T00:41:37;15.83;;;14.23;;
45650;SDS011;31365;48.858;8.530;2022-12-15T00:44:05;16.27;;;13.43;;
45650;SDS011;31365;48.858;8.530;2022-12-15T00:46:35;17.97;;;14.53;;
45650;SDS011;31365;48.858;8.530;2022-12-15T00:49:21;17.80;;;14.20;;
45650;SDS011;31365;48.858;8.530;2022-12-15T00:52:07;16.80;;;14.13;;
45650;SDS011;31365;48.858;8.530;2022-12-15T00:54:55;15.33;;;13.10;;
45650;SDS011;31365;48.858;8.530;2022-12-15T00:57:41;17.20;;;14.23;;
45650;SDS011;31365;48.858;8.530;2022-12-15T01:00:29;18.20;;;14.77;;
45650;SDS011;31365;48.858;8.530;2022-12-15T01:03:18;16.57;;;14.30;;
45650;SDS011;31365;48.858;8.530;2022-12-15T01:06:07;17.73;;;14.50;;
45650;SDS011;31365;48.858;8.530;2022-12-15T01:08:56;16.03;;;14.03;;
45650;SDS011;31365;48.858;8.530;2022-12-15T01:11:43;14.77;;;13.13;;
45650;SDS011;31365;48.858;8.530;2022-12-15T01:14:30;18.07;;;14.23;;
45650;SDS011;31365;48.858;8.530;2022-12-15T01:17:17;16.87;;;13.00;;
45650;SDS011;31365;48.858;8.530;2022-12-15T01:20:05;15.50;;;13.27;;
45650;SDS011;31365;48.858;8.530;2022-12-15T01:22:44;17.07;;;14.67;;
45650;SDS011;31365;48.858;8.530;2022-12-15T01:25:14;16.57;;;14.50;;
45650;SDS011;31365;48.858;8.530;2022-12-15T01:27:44;17.30;;;13.50;;
45650;SDS011;31365;48.858;8.530;2022-12-15T01:30:14;17.10;;;14.93;;
45650;SDS011;31365;48.858;8.530;2022-12-15T01:32:44;19.13;;;14.80;;
45650;SDS011;31365;48.858;8.530;2022-12-15T01:35:14;16.93;;;13.43;;
45650;SDS011;31365;48.858;8.530;2022-12-15T01:37:44;17.90;;;15.53;;
45650;SDS011;31365;48.858;8.530;2022-12-15T01:40:16;17.80;;;14.50;;
45650;SDS011;31365;48.858;8.530;2022-12-15T01:43:08;19.53;;;15.53;;
45650;SDS011;31365;48.858;8.530;2022-12-15T01:45:44;17.53;;;13.90;;
45650;SDS011;31365;48.858;8.530;2022-12-15T01:48:24;16.10;;;14.13;;
45650;SDS011;31365;48.858;8.530;2022-12-15T01:51:03;17.33;;;14.17;;
45650;SDS011;31365;48.858;8.530;2022-12-15T01:53:47;20.17;;;15.00;;
45650;SDS011;31365;48.858;8.530;2022-12-15T01:56:20;17.20;;;14.47;;
45650;SDS011;31365;48.858;8.530;2022-12-15T01:59:02;18.57;;;15.30;;
45650;SDS011;31365;48.858;8.530;2022-12-15T02:01:36;19.40;;;15.10;;
45650;SDS011;31365;48.858;8.530;2022-12-15T02:04:08;21.70;;;15.00;;
45650;SDS011;31365;48.858;8.530;2022-12-15T02:06:39;19.53;;;15.10;;
45650;SDS011;31365;48.858;8.530;2022-12-15T02:09:07;18.87;;;14.93;;
45650;SDS011;31365;48.858;8.530;2022-12-15T02:11:38;18.40;;;15.23;;
45650;SDS011;31365;48.858;8.530;2022-12-15T02:14:24;16.40;;;14.47;;
45650;SDS011;31365;48.858;8.530;2022-12-15T02:17:13;17.37;;;14.77;;
45650;SDS011;31365;48.858;8.530;2022-12-15T02:30:19;19.93;;;15.70;;
45650;SDS011;31365;48.858;8.530;2022-12-15T02:32:58;17.73;;;15.23;;
45650;SDS011;31365;48.858;8.530;2022-12-15T02:35:36;19.13;;;15.93;;
45650;SDS011;31365;48.858;8.530;2022-12-15T02:38:26;18.90;;;15.40;;
45650;SDS011;31365;48.858;8.530;2022-12-15T02:40:58;20.17;;;15.37;;
45650;SDS011;31365;48.858;8.530;2022-12-15T02:43:28;53.13;;;38.63;;
45650;SDS011;31365;48.858;8.530;2022-12-15T02:46:11;36.43;;;27.37;;
45650;SDS011;31365;48.858;8.530;2022-12-15T02:48:53;23.37;;;17.90;;
45650;SDS011;31365;48.858;8.530;2022-12-15T02:51:36;17.47;;;15.03;;
45650;SDS011;31365;48.858;8.530;2022-12-15T02:54:22;18.23;;;14.97;;
45650;SDS011;31365;48.858;8.530;2022-12-15T02:57:33;16.03;;;14.33;;
45650;SDS011;31365;48.858;8.530;2022-12-15T03:00:11;20.20;;;15.63;;
45650;SDS011;31365;48.858;8.530;2022-12-15T03:02:44;17.37;;;14.77;;
45650;SDS011;31365;48.858;8.530;2022-12-15T03:05:18;17.97;;;15.40;;
45650;SDS011;31365;48.858;8.530;2022-12-15T03:07:49;19.60;;;16.20;;
45650;SDS011;31365;48.858;8.530;2022-12-15T03:10:21;17.93;;;15.60;;
45650;SDS011;31365;48.858;8.530;2022-12-15T03:12:52;19.60;;;15.20;;
45650;SDS011;31365;48.858;8.530;2022-12-15T03:15:20;18.80;;;14.93;;
45650;SDS011;31365;48.858;8.530;2022-12-15T03:17:50;17.77;;;15.20;;
45650;SDS011;31365;48.858;8.530;2022-12-15T03:20:18;21.70;;;14.87;;
45650;SDS011;31365;48.858;8.530;2022-12-15T03:22:47;18.33;;;15.20;;
45650;SDS011;31365;48.858;8.530;2022-12-15T03:25:15;18.53;;;15.70;;
45650;SDS011;31365;48.858;8.530;2022-12-15T03:27:44;18.17;;;15.30;;
45650;SDS011;31365;48.858;8.530;2022-12-15T03:30:13;17.67;;;13.90;;
45650;SDS011;31365;48.858;8.530;2022-12-15T03:32:41;18.03;;;14.83;;
45650;SDS011;31365;48.858;8.530;2022-12-15T03:35:11;18.03;;;15.03;;
45650;SDS011;31365;48.858;8.530;2022-12-15T03:37:40;16.10;;;14.07;;
45650;SDS011;31365;48.858;8.530;2022-12-15T03:40:10;19.47;;;15.50;;
45650;SDS011;31365;48.858;8.530;2022-12-15T03:42:42;16.60;;;14.03;;
45650;SDS011;31365;48.858;8.530;2022-12-15T03:45:18;16.93;;;14.27;;
45650;SDS011;31365;48.858;8.530;2022-12-15T03:47:50;18.73;;;14.03;;
45650;SDS011;31365;48.858;8.530;2022-12-15T03:50:22;16.00;;;13.63;;
45650;SDS011;31365;48.858;8.530;2022-12-15T03:52:55;15.97;;;13.87;;
45650;SDS011;31365;48.858;8.530;2022-12-15T03:55:26;16.07;;;13.60;;
45650;SDS011;31365;48.858;8.530;2022-12-15T03:57:56;17.73;;;14.80;;
45650;SDS011;31365;48.858;8.530;2022-12-15T04:00:26;15.80;;;14.03;;
45650;SDS011;31365;48.858;8.530;2022-12-15T04:02:56;16.93;;;14.47;;
45650;SDS011;31365;48.858;8.530;2022-12-15T04:05:27;17.93;;;14.37;;
45650;SDS011;31365;48.858;8.530;2022-12-15T04:07:58;16.57;;;14.33;;
45650;SDS011;31365;48.858;8.530;2022-12-15T04:10:29;17.57;;;15.20;;
45650;SDS011;31365;48.858;8.530;2022-12-15T04:13:01;16.67;;;14.10;;
45650;SDS011;31365;48.858;8.530;2022-12-15T04:15:32;18.53;;;14.37;;
45650;SDS011;31365;48.858;8.530;2022-12-15T04:18:02;18.40;;;14.77;;
45650;SDS011;31365;48.858;8.530;2022-12-15T04:20:34;17.33;;;14.77;;
45650;SDS011;31365;48.858;8.530;2022-12-15T04:23:03;18.90;;;14.53;;
45650;SDS011;31365;48.858;8.530;2022-12-15T04:25:33;20.93;;;15.93;;
45650;SDS011;31365;48.858;8.530;2022-12-15T04:28:20;20.53;;;14.87;;
45650;SDS011;31365;48.858;8.530;2022-12-15T04:31:07;17.93;;;14.33;;
45650;SDS011;31365;48.858;8.530;2022-12-15T04:33:56;18.27;;;13.80;;
45650;SDS011;31365;48.858;8.530;2022-12-15T04:36:48;16.47;;;14.03;;
45650;SDS011;31365;48.858;8.530;2022-12-15T04:39:39;17.83;;;13.47;;
45650;SDS011;31365;48.858;8.530;2022-12-15T04:42:27;17.47;;;13.67;;
45650;SDS011;31365;48.858;8.530;2022-12-15T04:45:17;18.37;;;14.23;;
45650;SDS011;31365;48.858;8.530;2022-12-15T04:48:06;19.10;;;14.47;;
45650;SDS011;31365;48.858;8.530;2022-12-15T04:50:53;16.63;;;13.13;;
45650;SDS011;31365;48.858;8.530;2022-12-15T04:53:42;15.07;;;12.93;;
45650;SDS011;31365;48.858;8.530;2022-12-15T04:56:29;19.23;;;14.20;;
45650;SDS011;31365;48.858;8.530;2022-12-15T04:59:16;17.20;;;13.97;;
45650;SDS011;31365;48.858;8.530;2022-12-15T05:02:03;16.93;;;13.60;;
45650;SDS011;31365;48.858;8.530;2022-12-15T05:04:49;16.40;;;13.67;;
45650;SDS011;31365;48.858;8.530;2022-12-15T05:07:35;15.07;;;12.70;;
45650;SDS011;31365;48.858;8.530;2022-12-15T05:10:22;14.93;;;12.47;;
45650;SDS011;31365;48.858;8.530;2022-12-15T05:13:09;17.30;;;12.40;;
45650;SDS011;31365;48.858;8.530;2022-12-15T05:15:56;16.80;;;13.70;;
45650;SDS011;31365;48.858;8.530;2022-12-15T05:18:42;18.03;;;13.77;;
45650;SDS011;31365;48.858;8.530;2022-12-15T05:21:28;15.97;;;13.23;;
45650;SDS011;31365;48.858;8.530;2022-12-15T05:24:14;18.70;;;14.07;;
45650;SDS011;31365;48.858;8.530;2022-12-15T05:27:01;18.77;;;13.43;;
45650;SDS011;31365;48.858;8.530;2022-12-15T05:29:47;19.93;;;15.07;;
45650;SDS011;31365;48.858;8.530;2022-12-15T05:32:32;20.07;;;13.63;;
45650;SDS011;31365;48.858;8.530;2022-12-15T05:35:01;20.43;;;13.90;;
45650;SDS011;31365;48.858;8.530;2022-12-15T05:37:30;20.90;;;15.23;;
45650;SDS011;31365;48.858;8.530;2022-12-15T05:39:59;19.73;;;15.77;;
45650;SDS011;31365;48.858;8.530;2022-12-15T05:42:28;30.33;;;16.03;;
45650;SDS011;31365;48.858;8.530;2022-12-15T05:44:57;21.10;;;15.10;;
45650;SDS011;31365;48.858;8.530;2022-12-15T05:47:25;20.63;;;14.13;;
45650;SDS011;31365;48.858;8.530;2022-12-15T05:49:53;20.80;;;14.77;;
45650;SDS011;31365;48.858;8.530;2022-12-15T05:52:21;17.33;;;14.33;;
45650;SDS011;31365;48.858;8.530;2022-12-15T05:54:50;18.10;;;14.20;;
45650;SDS011;31365;48.858;8.530;2022-12-15T05:57:18;20.80;;;14.43;;
45650;SDS011;31365;48.858;8.530;2022-12-15T05:59:49;33.97;;;20.97;;
45650;SDS011;31365;48.858;8.530;2022-12-15T06:02:17;20.40;;;15.80;;
45650;SDS011;31365;48.858;8.530;2022-12-15T06:04:45;19.63;;;14.80;;
45650;SDS011;31365;48.858;8.530;2022-12-15T06:07:13;18.63;;;15.10;;
45650;SDS011;31365;48.858;8.530;2022-12-15T06:09:42;23.93;;;15.53;;
45650;SDS011;31365;48.858;8.530;2022-12-15T06:12:10;21.00;;;14.73;;
45650;SDS011;31365;48.858;8.530;2022-12-15T06:14:39;22.23;;;15.20;;
45650;SDS011;31365;48.858;8.530;2022-12-15T06:17:09;18.73;;;15.17;;
45650;SDS011;31365;48.858;8.530;2022-12-15T06:19:37;19.17;;;14.73;;
45650;SDS011;31365;48.858;8.530;2022-12-15T06:22:07;22.87;;;14.70;;
45650;SDS011;31365;48.858;8.530;2022-12-15T06:24:35;19.80;;;14.80;;
45650;SDS011;31365;48.858;8.530;2022-12-15T06:27:05;16.43;;;13.57;;
45650;SDS011;31365;48.858;8.530;2022-12-15T06:29:34;20.70;;;14.43;;
45650;SDS011;31365;48.858;8.530;2022-12-15T06:32:02;19.27;;;15.57;;
45650;SDS011;31365;48.858;8.530;2022-12-15T06:34:32;18.00;;;14.63;;
45650;SDS011;31365;48.858;8.530;2022-12-15T06:37:01;19.70;;;14.63;;
45650;SDS011;31365;48.858;8.530;2022-12-15T06:39:29;20.13;;;15.20;;
45650;SDS011;31365;48.858;8.530;2022-12-15T06:41:58;21.00;;;15.47;;
45650;SDS011;31365;48.858;8.530;2022-12-15T06:44:26;21.73;;;17.13;;
45650;SDS011;31365;48.858;8.530;2022-12-15T06:46:55;19.87;;;16.23;;
45650;SDS011;31365;48.858;8.530;2022-12-15T06:49:23;19.77;;;16.37;;
45650;SDS011;31365;48.858;8.530;2022-12-15T06:51:53;22.87;;;15.43;;
45650;SDS011;31365;48.858;8.530;2022-12-15T06:54:22;17.87;;;15.00;;
45650;SDS011;31365;48.858;8.530;2022-12-15T06:56:50;18.77;;;14.03;;
45650;SDS011;31365;48.858;8.530;2022-12-15T06:59:18;18.00;;;13.47;;
45650;SDS011;31365;48.858;8.530;2022-12-15T07:01:48;20.60;;;14.97;;
45650;SDS011;31365;48.858;8.530;2022-12-15T07:04:16;23.47;;;15.83;;
45650;SDS011;31365;48.858;8.530;2022-12-15T07:06:46;16.40;;;14.13;;
45650;SDS011;31365;48.858;8.530;2022-12-15T07:09:16;19.80;;;15.43;;
45650;SDS011;31365;48.858;8.530;2022-12-15T07:11:44;16.70;;;14.53;;
45650;SDS011;31365;48.858;8.530;2022-12-15T07:14:15;21.07;;;14.70;;
45650;SDS011;31365;48.858;8.530;2022-12-15T07:16:44;21.57;;;15.20;;
45650;SDS011;31365;48.858;8.530;2022-12-15T07:19:13;21.27;;;15.87;;
45650;SDS011;31365;48.858;8.530;2022-12-15T07:21:42;18.53;;;15.47;;
45650;SDS011;31365;48.858;8.530;2022-12-15T07:24:11;17.87;;;14.97;;
45650;SDS011;31365;48.858;8.530;2022-12-15T07:26:41;23.37;;;15.03;;
45650;SDS011;31365;48.858;8.530;2022-12-15T07:29:14;26.23;;;17.00;;
45650;SDS011;31365;48.858;8.530;2022-12-15T07:31:48;25.13;;;18.70;;
45650;SDS011;31365;48.858;8.530;2022-12-15T07:34:17;22.13;;;14.93;;
45650;SDS011;31365;48.858;8.530;2022-12-15T07:36:45;21.00;;;15.80;;
45650;SDS011;31365;48.858;8.530;2022-12-15T07:39:18;22.43;;;15.33;;
45650;SDS011;31365;48.858;8.530;2022-12-15T07:41:48;26.77;;;17.17;;
45650;SDS011;31365;48.858;8.530;2022-12-15T07:44:17;21.17;;;17.07;;
45650;SDS011;31365;48.858;8.530;2022-12-15T07:46:46;21.97;;;16.13;;
45650;SDS011;31365;48.858;8.530;2022-12-15T07:49:14;21.07;;;16.07;;
45650;SDS011;31365;48.858;8.530;2022-12-15T07:51:43;36.07;;;25.70;;
45650;SDS011;31365;48.858;8.530;2022-12-15T07:54:12;21.60;;;17.20;;
45650;SDS011;31365;48.858;8.530;2022-12-15T07:56:41;21.87;;;15.80;;
45650;SDS011;31365;48.858;8.530;2022-12-15T07:59:17;24.17;;;16.00;;
45650;SDS011;31365;48.858;8.530;2022-12-15T08:01:47;19.83;;;15.43;;
45650;SDS011;31365;48.858;8.530;2022-12-15T08:04:16;20.97;;;16.40;;
45650;SDS011;31365;48.858;8.530;2022-12-15T08:06:44;22.83;;;16.30;;
45650;SDS011;31365;48.858;8.530;2022-12-15T08:09:13;21.33;;;15.27;;
45650;SDS011;31365;48.858;8.530;2022-12-15T08:11:42;21.40;;;14.77;;
45650;SDS011;31365;48.858;8.530;2022-12-15T08:14:10;20.40;;;15.53;;
45650;SDS011;31365;48.858;8.530;2022-12-15T08:16:45;24.70;;;16.57;;
45650;SDS011;31365;48.858;8.530;2022-12-15T08:19:14;21.60;;;16.03;;
45650;SDS011;31365;48.858;8.530;2022-12-15T08:21:44;24.20;;;16.13;;
45650;SDS011;31365;48.858;8.530;2022-12-15T08:24:14;23.93;;;17.50;;
45650;SDS011;31365;48.858;8.530;2022-12-15T08:26:44;23.57;;;15.50;;
45650;SDS011;31365;48.858;8.530;2022-12-15T08:29:15;23.13;;;16.97;;
45650;SDS011;31365;48.858;8.530;2022-12-15T08:32:05;24.97;;;17.17;;
45650;SDS011;31365;48.858;8.530;2022-12-15T08:34:34;20.83;;;16.10;;
45650;SDS011;31365;48.858;8.530;2022-12-15T08:37:02;22.70;;;16.23;;
45650;SDS011;31365;48.858;8.530;2022-12-15T08:39:31;27.17;;;17.90;;
45650;SDS011;31365;48.858;8.530;2022-12-15T08:41:59;22.20;;;16.63;;
45650;SDS011;31365;48.858;8.530;2022-12-15T08:44:28;24.17;;;16.97;;
45650;SDS011;31365;48.858;8.530;2022-12-15T08:46:57;20.67;;;16.67;;
45650;SDS011;31365;48.858;8.530;2022-12-15T08:49:26;23.23;;;16.73;;
45650;SDS011;31365;48.858;8.530;2022-12-15T08:51:55;24.40;;;17.50;;
45650;SDS011;31365;48.858;8.530;2022-12-15T08:54:23;21.70;;;17.20;;
45650;SDS011;31365;48.858;8.530;2022-12-15T08:56:52;21.87;;;17.07;;
45650;SDS011;31365;48.858;8.530;2022-12-15T08:59:20;25.83;;;18.67;;
45650;SDS011;31365;48.858;8.530;2022-12-15T09:01:50;20.10;;;17.23;;
45650;SDS011;31365;48.858;8.530;2022-12-15T09:04:19;27.83;;;18.03;;
45650;SDS011;31365;48.858;8.530;2022-12-15T09:06:49;21.40;;;17.13;;
45650;SDS011;31365;48.858;8.530;2022-12-15T09:09:19;20.43;;;16.60;;
45650;SDS011;31365;48.858;8.530;2022-12-15T09:11:47;20.23;;;16.57;;
45650;SDS011;31365;48.858;8.530;2022-12-15T09:14:16;24.93;;;17.73;;
45650;SDS011;31365;48.858;8.530;2022-12-15T09:16:54;25.27;;;17.77;;
45650;SDS011;31365;48.858;8.530;2022-12-15T09:19:23;19.57;;;16.00;;
45650;SDS011;31365;48.858;8.530;2022-12-15T09:21:53;24.73;;;17.90;;
45650;SDS011;31365;48.858;8.530;2022-12-15T09:24:22;21.03;;;16.77;;
45650;SDS011;31365;48.858;8.530;2022-12-15T09:27:00;25.80;;;20.83;;
45650;SDS011;31365;48.858;8.530;2022-12-15T09:29:30;23.50;;;19.90;;
45650;SDS011;31365;48.858;8.530;2022-12-15T09:32:00;23.13;;;19.17;;
45650;SDS011;31365;48.858;8.530;2022-12-15T09:34:35;23.60;;;18.27;;
45650;SDS011;31365;48.858;8.530;2022-12-15T09:37:05;24.70;;;18.80;;
45650;SDS011;31365;48.858;8.530;2022-12-15T09:39:33;22.53;;;18.37;;
45650;SDS011;31365;48.858;8.530;2022-12-15T09:42:03;22.63;;;17.60;;
45650;SDS011;31365;48.858;8.530;2022-12-15T09:44:45;22.23;;;17.23;;
45650;SDS011;31365;48.858;8.530;2022-12-15T09:47:16;21.87;;;18.37;;
45650;SDS011;31365;48.858;8.530;2022-12-15T09:49:53;23.23;;;19.57;;
45650;SDS011;31365;48.858;8.530;2022-12-15T09:52:26;23.90;;;19.73;;
45650;SDS011;31365;48.858;8.530;2022-12-15T09:54:58;25.90;;;17.77;;
45650;SDS011;31365;48.858;8.530;2022-12-15T09:57:32;24.07;;;20.20;;
45650;SDS011;31365;48.858;8.530;2022-12-15T10:00:14;25.77;;;18.77;;
45650;SDS011;31365;48.858;8.530;2022-12-15T10:05:59;23.83;;;17.83;;
45650;SDS011;31365;48.858;8.530;2022-12-15T10:08:47;24.40;;;19.70;;
45650;SDS011;31365;48.858;8.530;2022-12-15T10:11:25;24.03;;;18.93;;
45650;SDS011;31365;48.858;8.530;2022-12-15T10:14:32;26.00;;;18.13;;
45650;SDS011;31365;48.858;8.530;2022-12-15T10:17:12;24.13;;;17.53;;
45650;SDS011;31365;48.858;8.530;2022-12-15T10:19:51;23.97;;;19.90;;
45650;SDS011;31365;48.858;8.530;2022-12-15T10:22:29;23.20;;;19.03;;
45650;SDS011;31365;48.858;8.530;2022-12-15T10:25:08;23.03;;;19.17;;
45650;SDS011;31365;48.858;8.530;2022-12-15T10:31:12;24.63;;;19.07;;
45650;SDS011;31365;48.858;8.530;2022-12-15T10:33:53;24.43;;;19.10;;
45650;SDS011;31365;48.858;8.530;2022-12-15T10:36:32;20.63;;;17.97;;
45650;SDS011;31365;48.858;8.530;2022-12-15T10:39:01;23.60;;;19.00;;
45650;SDS011;31365;48.858;8.530;2022-12-15T10:41:31;22.57;;;19.77;;
45650;SDS011;31365;48.858;8.530;2022-12-15T10:44:00;20.80;;;18.60;;
45650;SDS011;31365;48.858;8.530;2022-12-15T10:46:29;22.80;;;19.23;;
45650;SDS011;31365;48.858;8.530;2022-12-15T10:48:58;22.43;;;18.40;;
45650;SDS011;31365;48.858;8.530;2022-12-15T10:51:51;24.90;;;19.20;;
45650;SDS011;31365;48.858;8.530;2022-12-15T10:54:23;23.07;;;20.13;;
45650;SDS011;31365;48.858;8.530;2022-12-15T11:39:51;24.07;;;19.70;;
45650;SDS011;31365;48.858;8.530;2022-12-15T11:42:41;27.30;;;19.83;;
45650;SDS011;31365;48.858;8.530;2022-12-15T11:45:30;23.70;;;19.87;;
45650;SDS011;31365;48.858;8.530;2022-12-15T11:48:14;26.13;;;20.00;;
45650;SDS011;31365;48.858;8.530;2022-12-15T11:50:51;24.23;;;20.03;;
45650;SDS011;31365;48.858;8.530;2022-12-15T11:53:32;21.97;;;19.57;;
45650;SDS011;31365;48.858;8.530;2022-12-15T11:56:29;25.03;;;19.10;;
45650;SDS011;31365;48.858;8.530;2022-12-15T11:59:16;27.70;;;19.87;;
45650;SDS011;31365;48.858;8.530;2022-12-15T12:02:24;26.03;;;19.40;;
45650;SDS011;31365;48.858;8.530;2022-12-15T12:05:25;26.37;;;18.57;;
45650;SDS011;31365;48.858;8.530;2022-12-15T12:08:12;25.30;;;20.13;;
45650;SDS011;31365;48.858;8.530;2022-12-15T12:11:02;25.63;;;20.60;;
45650;SDS011;31365;48.858;8.530;2022-12-15T12:13:43;23.63;;;19.47;;
45650;SDS011;31365;48.858;8.530;2022-12-15T12:16:35;25.10;;;19.20;;
45650;SDS011;31365;48.858;8.530;2022-12-15T12:19:15;28.40;;;20.30;;
45650;SDS011;31365;48.858;8.530;2022-12-15T12:21:50;24.87;;;19.87;;
45650;SDS011;31365;48.858;8.530;2022-12-15T12:24:28;25.83;;;20.50;;
45650;SDS011;31365;48.858;8.530;2022-12-15T12:27:24;23.90;;;18.60;;
45650;SDS011;31365;48.858;8.530;2022-12-15T12:30:10;24.17;;;18.57;;
45650;SDS011;31365;48.858;8.530;2022-12-15T12:32:49;25.00;;;19.07;;
45650;SDS011;31365;48.858;8.530;2022-12-15T12:35:29;24.17;;;19.97;;
45650;SDS011;31365;48.858;8.530;2022-12-15T12:38:23;24.10;;;18.67;;
45650;SDS011;31365;48.858;8.530;2022-12-15T12:41:00;24.87;;;19.43;;
45650;SDS011;31365;48.858;8.530;2022-12-15T12:43:36;23.70;;;19.37;;
45650;SDS011;31365;48.858;8.530;2022-12-15T12:46:17;25.37;;;18.23;;
45650;SDS011;31365;48.858;8.530;2022-12-15T12:48:52;23.70;;;19.20;;
45650;SDS011;31365;48.858;8.530;2022-12-15T12:51:26;25.90;;;18.30;;
45650;SDS011;31365;48.858;8.530;2022-12-15T12:53:59;23.97;;;19.67;;
45650;SDS011;31365;48.858;8.530;2022-12-15T12:56:30;23.33;;;18.73;;
45650;SDS011;31365;48.858;8.530;2022-12-15T13:05:24;27.37;;;20.43;;
45650;SDS011;31365;48.858;8.530;2022-12-15T13:14:46;26.63;;;19.13;;
45650;SDS011;31365;48.858;8.530;2022-12-15T13:20:15;24.83;;;19.30;;
45650;SDS011;31365;48.858;8.530;2022-12-15T13:22:51;23.60;;;19.47;;
45650;SDS011;31365;48.858;8.530;2022-12-15T13:31:36;23.73;;;17.83;;
45650;SDS011;31365;48.858;8.530;2022-12-15T13:34:18;22.67;;;18.50;;
45650;SDS011;31365;48.858;8.530;2022-12-15T13:36:56;21.13;;;17.87;;
45650;SDS011;31365;48.858;8.530;2022-12-15T13:39:31;21.10;;;17.87;;
45650;SDS011;31365;48.858;8.530;2022-12-15T13:48:21;20.90;;;17.63;;
45650;SDS011;31365;48.858;8.530;2022-12-15T13:51:00;21.77;;;17.97;;
45650;SDS011;31365;48.858;8.530;2022-12-15T13:53:46;26.53;;;17.83;;
45650;SDS011;31365;48.858;8.530;2022-12-15T13:56:24;20.73;;;17.00;;
45650;SDS011;31365;48.858;8.530;2022-12-15T13:59:17;24.10;;;18.07;;
45650;SDS011;31365;48.858;8.530;2022-12-15T14:01:56;20.43;;;17.10;;
45650;SDS011;31365;48.858;8.530;2022-12-15T14:04:24;21.90;;;18.03;;
45650;SDS011;31365;48.858;8.530;2022-12-15T14:06:55;20.97;;;17.83;;
45650;SDS011;31365;48.858;8.530;2022-12-15T14:09:29;21.73;;;17.67;;
45650;SDS011;31365;48.858;8.530;2022-12-15T14:12:04;27.87;;;21.07;;
45650;SDS011;31365;48.858;8.530;2022-12-15T14:14:41;23.17;;;19.40;;
45650;SDS011;31365;48.858;8.530;2022-12-15T14:17:15;27.00;;;19.97;;
45650;SDS011;31365;48.858;8.530;2022-12-15T14:19:46;25.80;;;19.80;;
45650;SDS011;31365;48.858;8.530;2022-12-15T14:22:18;21.23;;;17.67;;
45650;SDS011;31365;48.858;8.530;2022-12-15T14:25:00;23.33;;;17.80;;
45650;SDS011;31365;48.858;8.530;2022-12-15T14:27:39;22.77;;;17.93;;
45650;SDS011;31365;48.858;8.530;2022-12-15T14:32:55;22.30;;;16.73;;
45650;SDS011;31365;48.858;8.530;2022-12-15T14:35:28;23.00;;;18.70;;
45650;SDS011;31365;48.858;8.530;2022-12-15T14:38:04;21.53;;;18.17;;
45650;SDS011;31365;48.858;8.530;2022-12-15T14:40:40;21.30;;;17.23;;
45650;SDS011;31365;48.858;8.530;2022-12-15T14:43:15;22.80;;;18.53;;
45650;SDS011;31365;48.858;8.530;2022-12-15T14:45:52;20.33;;;17.00;;
45650;SDS011;31365;48.858;8.530;2022-12-15T14:48:32;21.83;;;17.93;;
45650;SDS011;31365;48.858;8.530;2022-12-15T14:51:08;24.87;;;19.80;;
45650;SDS011;31365;48.858;8.530;2022-12-15T14:53:40;20.63;;;17.70;;
45650;SDS011;31365;48.858;8.530;2022-12-15T14:56:27;22.13;;;17.40;;
45650;SDS011;31365;48.858;8.530;2022-12-15T14:58:59;19.93;;;16.83;;
45650;SDS011;31365;48.858;8.530;2022-12-15T15:01:33;21.53;;;16.97;;
45650;SDS011;31365;48.858;8.530;2022-12-15T15:04:19;22.77;;;18.43;;
45650;SDS011;31365;48.858;8.530;2022-12-15T15:06:52;23.03;;;18.40;;
45650;SDS011;31365;48.858;8.530;2022-12-15T17:42:34;18.50;;;14.43;;
45650;SDS011;31365;48.858;8.530;2022-12-15T17:45:04;20.07;;;15.67;;
45650;SDS011;31365;48.858;8.530;2022-12-15T17:47:50;21.33;;;14.97;;
45650;SDS011;31365;48.858;8.530;2022-12-15T17:50:19;20.73;;;15.57;;
45650;SDS011;31365;48.858;8.530;2022-12-15T17:52:47;18.73;;;15.77;;
45650;SDS011;31365;48.858;8.530;2022-12-15T17:55:16;18.63;;;15.37;;
45650;SDS011;31365;48.858;8.530;2022-12-15T17:57:48;18.83;;;15.23;;
45650;SDS011;31365;48.858;8.530;2022-12-15T18:00:19;18.03;;;15.10;;
45650;SDS011;31365;48.858;8.530;2022-12-15T18:02:53;18.73;;;14.83;;
45650;SDS011;31365;48.858;8.530;2022-12-15T18:05:24;18.80;;;15.20;;
45650;SDS011;31365;48.858;8.530;2022-12-15T18:07:56;18.90;;;15.60;;
45650;SDS011;31365;48.858;8.530;2022-12-15T18:10:28;22.37;;;16.50;;
45650;SDS011;31365;48.858;8.530;2022-12-15T18:13:02;18.90;;;14.63;;
45650;SDS011;31365;48.858;8.530;2022-12-15T18:15:43;18.53;;;15.47;;
45650;SDS011;31365;48.858;8.530;2022-12-15T18:18:14;19.10;;;15.37;;
45650;SDS011;31365;48.858;8.530;2022-12-15T18:20:44;18.77;;;15.93;;
45650;SDS011;31365;48.858;8.530;2022-12-15T18:23:14;21.17;;;15.43;;
45650;SDS011;31365;48.858;8.530;2022-12-15T18:25:48;17.97;;;14.70;;
45650;SDS011;31365;48.858;8.530;2022-12-15T18:28:20;17.37;;;14.97;;
45650;SDS011;31365;48.858;8.530;2022-12-15T18:30:52;18.13;;;15.03;;
45650;SDS011;31365;48.858;8.530;2022-12-15T18:33:22;18.00;;;15.47;;
45650;SDS011;31365;48.858;8.530;2022-12-15T18:35:52;17.20;;;14.20;;
45650;SDS011;31365;48.858;8.530;2022-12-15T18:38:22;17.40;;;14.63;;
45650;SDS011;31365;48.858;8.530;2022-12-15T18:40:52;18.83;;;15.00;;
45650;SDS011;31365;48.858;8.530;2022-12-15T18:43:27;20.50;;;14.77;;
45650;SDS011;31365;48.858;8.530;2022-12-15T18:45:58;18.23;;;14.83;;
45650;SDS011;31365;48.858;8.530;2022-12-15T18:48:30;17.73;;;15.17;;
45650;SDS011;31365;48.858;8.530;2022-12-15T18:51:01;18.23;;;14.90;;
45650;SDS011;31365;48.858;8.530;2022-12-15T18:53:42;20.57;;;16.30;;
45650;SDS011;31365;48.858;8.530;2022-12-15T18:56:14;19.37;;;15.53;;
45650;SDS011;31365;48.858;8.530;2022-12-15T18:58:48;19.23;;;15.53;;
45650;SDS011;31365;48.858;8.530;2022-12-15T19:01:17;21.17;;;16.17;;
45650;SDS011;31365;48.858;8.530;2022-12-15T19:03:49;19.47;;;15.37;;
45650;SDS011;31365;48.858;8.530;2022-12-15T19:06:19;18.87;;;15.00;;
45650;SDS011;31365;48.858;8.530;2022-12-15T19:09:00;19.63;;;14.97;;
45650;SDS011;31365;48.858;8.530;2022-12-15T19:11:31;21.03;;;15.00;;
45650;SDS011;31365;48.858;8.530;2022-12-15T19:14:02;21.67;;;17.80;;